sensor_id;sensor_type;location;lat;lon;timestamp;P1;durP1;ratioP1;P2;durP2;ratioP2
43807;SDS011;29438;50.664;10.098;2023-10-09T00:01:03;10.38;;;4.38;;
43807;SDS011;29438;50.664;10.098;2023-10-09T00:03:30;10.48;;;3.88;;
43807;SDS011;29438;50.664;10.098;2023-10-09T00:05:56;10.93;;;4.40;;
43807;SDS011;29438;50.664;10.098;2023-10-09T00:08:22;9.65;;;4.25;;
43807;SDS011;29438;50.664;10.098;2023-10-09T00:10:58;10.05;;;4.30;;
43807;SDS011;29438;50.664;10.098;2023-10-09T00:13:38;9.73;;;3.80;;
43807;SDS011;29438;50.664;10.098;2023-10-09T00:16:14;15.68;;;4.07;;
43807;SDS011;29438;50.664;10.098;2023-10-09T00:19:03;11.02;;;4.53;;
43807;SDS011;29438;50.664;10.098;2023-10-09T00:21:45;12.32;;;4.55;;
43807;SDS011;29438;50.664;10.098;2023-10-09T00:24:12;11.02;;;4.22;;
43807;SDS011;29438;50.664;10.098;2023-10-09T00:26:47;11.70;;;4.10;;
43807;SDS011;29438;50.664;10.098;2023-10-09T00:29:13;11.75;;;4.22;;
43807;SDS011;29438;50.664;10.098;2023-10-09T00:31:51;10.93;;;4.00;;
43807;SDS011;29438;50.664;10.098;2023-10-09T00:34:40;9.68;;;4.40;;
43807;SDS011;29438;50.664;10.098;2023-10-09T00:37:07;10.40;;;4.53;;
43807;SDS011;29438;50.664;10.098;2023-10-09T00:39:44;9.52;;;4.30;;
43807;SDS011;29438;50.664;10.098;2023-10-09T00:42:13;11.07;;;4.65;;
43807;SDS011;29438;50.664;10.098;2023-10-09T00:44:40;13.15;;;5.45;;
43807;SDS011;29438;50.664;10.098;2023-10-09T00:47:13;10.90;;;4.90;;
43807;SDS011;29438;50.664;10.098;2023-10-09T00:49:48;15.57;;;5.50;;
43807;SDS011;29438;50.664;10.098;2023-10-09T00:52:15;12.02;;;4.72;;
43807;SDS011;29438;50.664;10.098;2023-10-09T00:54:52;10.98;;;5.00;;
43807;SDS011;29438;50.664;10.098;2023-10-09T00:57:19;9.98;;;4.82;;
43807;SDS011;29438;50.664;10.098;2023-10-09T00:59:50;14.40;;;5.35;;
43807;SDS011;29438;50.664;10.098;2023-10-09T01:02:25;15.27;;;5.60;;
43807;SDS011;29438;50.664;10.098;2023-10-09T01:05:01;12.30;;;5.03;;
43807;SDS011;29438;50.664;10.098;2023-10-09T01:07:36;12.60;;;5.57;;
43807;SDS011;29438;50.664;10.098;2023-10-09T01:10:05;12.00;;;5.28;;
43807;SDS011;29438;50.664;10.098;2023-10-09T01:12:34;13.90;;;5.43;;
43807;SDS011;29438;50.664;10.098;2023-10-09T01:15:07;14.32;;;5.20;;
43807;SDS011;29438;50.664;10.098;2023-10-09T01:17:33;12.10;;;5.22;;
43807;SDS011;29438;50.664;10.098;2023-10-09T01:20:02;14.10;;;5.43;;
43807;SDS011;29438;50.664;10.098;2023-10-09T01:22:40;14.10;;;5.35;;
43807;SDS011;29438;50.664;10.098;2023-10-09T01:25:08;14.55;;;5.43;;
43807;SDS011;29438;50.664;10.098;2023-10-09T01:27:34;10.65;;;5.35;;
43807;SDS011;29438;50.664;10.098;2023-10-09T01:30:01;16.33;;;6.20;;
43807;SDS011;29438;50.664;10.098;2023-10-09T01:32:27;13.75;;;5.97;;
43807;SDS011;29438;50.664;10.098;2023-10-09T01:34:53;17.05;;;6.80;;
43807;SDS011;29438;50.664;10.098;2023-10-09T01:37:22;19.95;;;7.55;;
43807;SDS011;29438;50.664;10.098;2023-10-09T01:39:47;17.52;;;6.93;;
43807;SDS011;29438;50.664;10.098;2023-10-09T01:42:17;16.73;;;6.35;;
43807;SDS011;29438;50.664;10.098;2023-10-09T01:44:55;18.95;;;6.40;;
43807;SDS011;29438;50.664;10.098;2023-10-09T01:47:23;15.75;;;6.35;;
43807;SDS011;29438;50.664;10.098;2023-10-09T01:49:51;17.55;;;6.32;;
43807;SDS011;29438;50.664;10.098;2023-10-09T01:52:18;19.55;;;6.10;;
43807;SDS011;29438;50.664;10.098;2023-10-09T01:54:45;13.23;;;5.50;;
43807;SDS011;29438;50.664;10.098;2023-10-09T01:57:15;13.52;;;5.57;;
43807;SDS011;29438;50.664;10.098;2023-10-09T01:59:48;16.30;;;5.68;;
43807;SDS011;29438;50.664;10.098;2023-10-09T02:02:18;12.93;;;5.32;;
43807;SDS011;29438;50.664;10.098;2023-10-09T02:07:18;13.00;;;5.63;;
43807;SDS011;29438;50.664;10.098;2023-10-09T02:09:55;16.30;;;5.88;;
43807;SDS011;29438;50.664;10.098;2023-10-09T02:12:21;19.38;;;6.57;;
43807;SDS011;29438;50.664;10.098;2023-10-09T02:14:48;18.00;;;7.25;;
43807;SDS011;29438;50.664;10.098;2023-10-09T02:17:14;22.35;;;7.93;;
43807;SDS011;29438;50.664;10.098;2023-10-09T02:19:44;17.42;;;6.90;;
43807;SDS011;29438;50.664;10.098;2023-10-09T02:22:14;21.38;;;7.30;;
43807;SDS011;29438;50.664;10.098;2023-10-09T02:24:41;22.00;;;8.00;;
43807;SDS011;29438;50.664;10.098;2023-10-09T02:27:14;19.92;;;7.70;;
43807;SDS011;29438;50.664;10.098;2023-10-09T02:29:59;20.50;;;8.40;;
43807;SDS011;29438;50.664;10.098;2023-10-09T02:32:24;23.17;;;9.80;;
43807;SDS011;29438;50.664;10.098;2023-10-09T02:34:50;22.63;;;8.65;;
43807;SDS011;29438;50.664;10.098;2023-10-09T02:37:18;28.95;;;11.27;;
43807;SDS011;29438;50.664;10.098;2023-10-09T02:39:48;21.13;;;9.77;;
43807;SDS011;29438;50.664;10.098;2023-10-09T02:42:17;19.75;;;8.88;;
43807;SDS011;29438;50.664;10.098;2023-10-09T02:44:50;19.00;;;8.13;;
43807;SDS011;29438;50.664;10.098;2023-10-09T02:47:19;21.17;;;8.02;;
43807;SDS011;29438;50.664;10.098;2023-10-09T02:49:49;22.58;;;8.48;;
43807;SDS011;29438;50.664;10.098;2023-10-09T02:52:15;20.90;;;8.48;;
43807;SDS011;29438;50.664;10.098;2023-10-09T02:54:50;21.92;;;9.30;;
43807;SDS011;29438;50.664;10.098;2023-10-09T02:57:24;22.25;;;9.15;;
43807;SDS011;29438;50.664;10.098;2023-10-09T02:59:53;23.17;;;9.05;;
43807;SDS011;29438;50.664;10.098;2023-10-09T03:02:19;20.83;;;8.77;;
43807;SDS011;29438;50.664;10.098;2023-10-09T03:04:44;20.80;;;9.63;;
43807;SDS011;29438;50.664;10.098;2023-10-09T03:07:10;23.17;;;9.90;;
43807;SDS011;29438;50.664;10.098;2023-10-09T03:09:38;23.05;;;9.93;;
43807;SDS011;29438;50.664;10.098;2023-10-09T03:12:05;33.72;;;11.15;;
43807;SDS011;29438;50.664;10.098;2023-10-09T03:14:36;30.77;;;11.82;;
43807;SDS011;29438;50.664;10.098;2023-10-09T03:17:06;29.90;;;12.45;;
43807;SDS011;29438;50.664;10.098;2023-10-09T03:19:36;32.55;;;13.50;;
43807;SDS011;29438;50.664;10.098;2023-10-09T03:22:03;35.75;;;14.10;;
43807;SDS011;29438;50.664;10.098;2023-10-09T03:24:29;36.13;;;14.38;;
43807;SDS011;29438;50.664;10.098;2023-10-09T03:26:58;38.63;;;14.23;;
43807;SDS011;29438;50.664;10.098;2023-10-09T03:29:24;36.78;;;13.63;;
43807;SDS011;29438;50.664;10.098;2023-10-09T03:31:50;39.85;;;14.68;;
43807;SDS011;29438;50.664;10.098;2023-10-09T03:34:16;38.58;;;14.45;;
43807;SDS011;29438;50.664;10.098;2023-10-09T03:36:43;40.60;;;15.60;;
43807;SDS011;29438;50.664;10.098;2023-10-09T03:39:10;37.67;;;13.77;;
43807;SDS011;29438;50.664;10.098;2023-10-09T03:41:55;33.80;;;13.50;;
43807;SDS011;29438;50.664;10.098;2023-10-09T03:44:23;34.85;;;13.63;;
43807;SDS011;29438;50.664;10.098;2023-10-09T03:46:53;37.80;;;13.63;;
43807;SDS011;29438;50.664;10.098;2023-10-09T03:49:19;43.08;;;16.02;;
43807;SDS011;29438;50.664;10.098;2023-10-09T03:51:51;44.58;;;16.17;;
43807;SDS011;29438;50.664;10.098;2023-10-09T03:54:17;44.35;;;15.50;;
43807;SDS011;29438;50.664;10.098;2023-10-09T03:56:47;43.35;;;15.77;;
43807;SDS011;29438;50.664;10.098;2023-10-09T03:59:16;44.17;;;16.08;;
43807;SDS011;29438;50.664;10.098;2023-10-09T04:01:44;41.33;;;15.55;;
43807;SDS011;29438;50.664;10.098;2023-10-09T04:04:10;43.42;;;17.58;;
43807;SDS011;29438;50.664;10.098;2023-10-09T04:06:39;44.50;;;16.67;;
43807;SDS011;29438;50.664;10.098;2023-10-09T04:09:05;40.83;;;15.55;;
43807;SDS011;29438;50.664;10.098;2023-10-09T04:11:51;35.10;;;14.73;;
43807;SDS011;29438;50.664;10.098;2023-10-09T04:14:37;38.13;;;15.23;;
43807;SDS011;29438;50.664;10.098;2023-10-09T04:17:14;41.15;;;15.65;;
43807;SDS011;29438;50.664;10.098;2023-10-09T04:19:47;46.05;;;17.17;;
43807;SDS011;29438;50.664;10.098;2023-10-09T04:22:13;46.67;;;17.15;;
43807;SDS011;29438;50.664;10.098;2023-10-09T04:24:52;42.22;;;16.48;;
43807;SDS011;29438;50.664;10.098;2023-10-09T04:27:18;42.05;;;16.45;;
43807;SDS011;29438;50.664;10.098;2023-10-09T04:29:51;41.75;;;16.55;;
43807;SDS011;29438;50.664;10.098;2023-10-09T04:32:19;46.97;;;16.67;;
43807;SDS011;29438;50.664;10.098;2023-10-09T04:34:45;42.65;;;15.55;;
43807;SDS011;29438;50.664;10.098;2023-10-09T04:37:14;42.03;;;16.20;;
43807;SDS011;29438;50.664;10.098;2023-10-09T04:39:40;42.67;;;16.20;;
43807;SDS011;29438;50.664;10.098;2023-10-09T04:42:35;40.65;;;15.82;;
43807;SDS011;29438;50.664;10.098;2023-10-09T04:45:11;38.70;;;14.68;;
43807;SDS011;29438;50.664;10.098;2023-10-09T04:47:50;38.08;;;14.38;;
43807;SDS011;29438;50.664;10.098;2023-10-09T04:50:31;37.00;;;13.60;;
43807;SDS011;29438;50.664;10.098;2023-10-09T04:52:57;30.05;;;11.98;;
43807;SDS011;29438;50.664;10.098;2023-10-09T04:55:43;24.77;;;10.73;;
43807;SDS011;29438;50.664;10.098;2023-10-09T04:58:22;26.98;;;10.00;;
43807;SDS011;29438;50.664;10.098;2023-10-09T05:00:49;24.55;;;9.90;;
43807;SDS011;29438;50.664;10.098;2023-10-09T05:03:23;20.27;;;8.00;;
43807;SDS011;29438;50.664;10.098;2023-10-09T05:05:52;15.73;;;7.32;;
43807;SDS011;29438;50.664;10.098;2023-10-09T05:08:25;16.63;;;7.32;;
43807;SDS011;29438;50.664;10.098;2023-10-09T05:10:52;14.93;;;6.28;;
43807;SDS011;29438;50.664;10.098;2023-10-09T05:13:27;12.25;;;5.90;;
43807;SDS011;29438;50.664;10.098;2023-10-09T05:21:36;10.27;;;4.80;;
43807;SDS011;29438;50.664;10.098;2023-10-09T05:24:06;12.00;;;4.78;;
43807;SDS011;29438;50.664;10.098;2023-10-09T05:26:39;9.20;;;4.30;;
43807;SDS011;29438;50.664;10.098;2023-10-09T05:29:18;9.15;;;4.10;;
43807;SDS011;29438;50.664;10.098;2023-10-09T05:31:53;10.27;;;4.53;;
43807;SDS011;29438;50.664;10.098;2023-10-09T05:34:28;14.35;;;4.85;;
43807;SDS011;29438;50.664;10.098;2023-10-09T05:37:20;8.98;;;3.95;;
43807;SDS011;29438;50.664;10.098;2023-10-09T05:39:57;9.52;;;3.90;;
43807;SDS011;29438;50.664;10.098;2023-10-09T05:42:36;7.55;;;3.90;;
43807;SDS011;29438;50.664;10.098;2023-10-09T05:45:17;10.60;;;4.28;;
43807;SDS011;29438;50.664;10.098;2023-10-09T05:47:49;9.57;;;4.38;;
43807;SDS011;29438;50.664;10.098;2023-10-09T05:50:19;8.70;;;3.75;;
43807;SDS011;29438;50.664;10.098;2023-10-09T05:52:52;8.38;;;4.10;;
43807;SDS011;29438;50.664;10.098;2023-10-09T05:55:19;8.07;;;3.78;;
43807;SDS011;29438;50.664;10.098;2023-10-09T05:58:06;8.02;;;3.35;;
43807;SDS011;29438;50.664;10.098;2023-10-09T06:00:50;9.63;;;3.97;;
43807;SDS011;29438;50.664;10.098;2023-10-09T06:03:31;10.65;;;4.07;;
43807;SDS011;29438;50.664;10.098;2023-10-09T06:09:04;8.32;;;3.40;;
43807;SDS011;29438;50.664;10.098;2023-10-09T06:11:44;7.22;;;3.67;;
43807;SDS011;29438;50.664;10.098;2023-10-09T06:14:22;8.60;;;3.58;;
43807;SDS011;29438;50.664;10.098;2023-10-09T06:17:15;9.52;;;3.88;;
43807;SDS011;29438;50.664;10.098;2023-10-09T06:19:48;7.97;;;3.17;;
43807;SDS011;29438;50.664;10.098;2023-10-09T06:22:14;8.38;;;3.35;;
43807;SDS011;29438;50.664;10.098;2023-10-09T06:24:59;7.78;;;3.15;;
43807;SDS011;29438;50.664;10.098;2023-10-09T06:27:34;10.95;;;3.55;;
43807;SDS011;29438;50.664;10.098;2023-10-09T06:29:59;8.32;;;3.35;;
43807;SDS011;29438;50.664;10.098;2023-10-09T06:32:37;8.35;;;3.17;;
43807;SDS011;29438;50.664;10.098;2023-10-09T06:35:14;9.43;;;3.50;;
43807;SDS011;29438;50.664;10.098;2023-10-09T06:37:41;8.10;;;3.33;;
43807;SDS011;29438;50.664;10.098;2023-10-09T06:40:26;9.25;;;3.30;;
43807;SDS011;29438;50.664;10.098;2023-10-09T06:43:07;9.65;;;3.35;;
43807;SDS011;29438;50.664;10.098;2023-10-09T06:45:42;6.55;;;2.88;;
43807;SDS011;29438;50.664;10.098;2023-10-09T06:48:11;6.13;;;2.85;;
43807;SDS011;29438;50.664;10.098;2023-10-09T06:50:56;8.13;;;3.30;;
43807;SDS011;29438;50.664;10.098;2023-10-09T06:53:41;8.40;;;3.30;;
43807;SDS011;29438;50.664;10.098;2023-10-09T06:56:36;7.45;;;3.15;;
43807;SDS011;29438;50.664;10.098;2023-10-09T06:59:04;7.35;;;3.00;;
43807;SDS011;29438;50.664;10.098;2023-10-09T07:01:49;6.88;;;3.15;;
43807;SDS011;29438;50.664;10.098;2023-10-09T07:04:34;6.40;;;3.20;;
43807;SDS011;29438;50.664;10.098;2023-10-09T07:07:00;5.72;;;2.83;;
43807;SDS011;29438;50.664;10.098;2023-10-09T07:09:32;8.57;;;3.47;;
43807;SDS011;29438;50.664;10.098;2023-10-09T07:12:10;7.88;;;3.17;;
43807;SDS011;29438;50.664;10.098;2023-10-09T07:14:45;6.93;;;2.92;;
43807;SDS011;29438;50.664;10.098;2023-10-09T07:17:11;7.10;;;2.85;;
43807;SDS011;29438;50.664;10.098;2023-10-09T07:19:55;7.43;;;3.10;;
43807;SDS011;29438;50.664;10.098;2023-10-09T07:22:34;8.57;;;3.28;;
43807;SDS011;29438;50.664;10.098;2023-10-09T07:25:05;8.13;;;3.13;;
43807;SDS011;29438;50.664;10.098;2023-10-09T07:27:52;7.53;;;3.10;;
43807;SDS011;29438;50.664;10.098;2023-10-09T07:30:20;8.43;;;3.50;;
43807;SDS011;29438;50.664;10.098;2023-10-09T07:32:56;8.18;;;3.20;;
43807;SDS011;29438;50.664;10.098;2023-10-09T07:38:08;8.07;;;3.65;;
43807;SDS011;29438;50.664;10.098;2023-10-09T07:40:39;9.00;;;3.35;;
43807;SDS011;29438;50.664;10.098;2023-10-09T07:43:31;7.13;;;3.28;;
43807;SDS011;29438;50.664;10.098;2023-10-09T07:46:07;7.85;;;3.53;;
43807;SDS011;29438;50.664;10.098;2023-10-09T07:48:34;8.30;;;3.35;;
43807;SDS011;29438;50.664;10.098;2023-10-09T07:51:17;8.77;;;3.20;;
43807;SDS011;29438;50.664;10.098;2023-10-09T07:53:48;8.10;;;3.40;;
43807;SDS011;29438;50.664;10.098;2023-10-09T07:56:38;6.70;;;3.42;;
43807;SDS011;29438;50.664;10.098;2023-10-09T07:59:11;8.43;;;3.30;;
43807;SDS011;29438;50.664;10.098;2023-10-09T08:01:42;7.15;;;3.30;;
43807;SDS011;29438;50.664;10.098;2023-10-09T08:04:26;7.60;;;3.08;;
43807;SDS011;29438;50.664;10.098;2023-10-09T08:07:10;9.82;;;3.83;;
43807;SDS011;29438;50.664;10.098;2023-10-09T08:09:53;7.82;;;3.40;;
43807;SDS011;29438;50.664;10.098;2023-10-09T08:12:51;6.20;;;3.15;;
43807;SDS011;29438;50.664;10.098;2023-10-09T08:15:17;8.48;;;2.97;;
43807;SDS011;29438;50.664;10.098;2023-10-09T08:17:52;10.07;;;3.10;;
43807;SDS011;29438;50.664;10.098;2023-10-09T08:20:22;9.93;;;4.10;;
43807;SDS011;29438;50.664;10.098;2023-10-09T08:22:52;10.30;;;4.20;;
43807;SDS011;29438;50.664;10.098;2023-10-09T08:25:20;10.73;;;4.85;;
43807;SDS011;29438;50.664;10.098;2023-10-09T08:28:01;11.07;;;4.75;;
43807;SDS011;29438;50.664;10.098;2023-10-09T08:30:40;6.53;;;3.13;;
43807;SDS011;29438;50.664;10.098;2023-10-09T08:33:16;8.18;;;3.83;;
43807;SDS011;29438;50.664;10.098;2023-10-09T08:35:51;7.95;;;3.70;;
43807;SDS011;29438;50.664;10.098;2023-10-09T08:38:21;8.38;;;4.05;;
43807;SDS011;29438;50.664;10.098;2023-10-09T08:40:50;10.52;;;4.10;;
43807;SDS011;29438;50.664;10.098;2023-10-09T08:43:20;8.57;;;3.20;;
43807;SDS011;29438;50.664;10.098;2023-10-09T08:45:56;8.88;;;3.15;;
43807;SDS011;29438;50.664;10.098;2023-10-09T08:48:28;9.85;;;3.50;;
43807;SDS011;29438;50.664;10.098;2023-10-09T08:50:54;7.45;;;3.40;;
43807;SDS011;29438;50.664;10.098;2023-10-09T08:53:21;7.25;;;3.20;;
43807;SDS011;29438;50.664;10.098;2023-10-09T08:55:49;7.18;;;3.70;;
43807;SDS011;29438;50.664;10.098;2023-10-09T08:58:16;7.63;;;2.95;;
43807;SDS011;29438;50.664;10.098;2023-10-09T09:01:02;8.57;;;3.25;;
43807;SDS011;29438;50.664;10.098;2023-10-09T09:03:37;9.57;;;3.10;;
43807;SDS011;29438;50.664;10.098;2023-10-09T09:06:04;7.68;;;3.53;;
43807;SDS011;29438;50.664;10.098;2023-10-09T09:08:30;6.90;;;3.40;;
43807;SDS011;29438;50.664;10.098;2023-10-09T09:11:04;8.32;;;3.15;;
43807;SDS011;29438;50.664;10.098;2023-10-09T09:16:24;6.43;;;3.00;;
43807;SDS011;29438;50.664;10.098;2023-10-09T09:18:55;6.68;;;3.30;;
43807;SDS011;29438;50.664;10.098;2023-10-09T09:21:28;7.57;;;3.03;;
43807;SDS011;29438;50.664;10.098;2023-10-09T09:26:35;7.05;;;3.05;;
43807;SDS011;29438;50.664;10.098;2023-10-09T09:29:10;8.68;;;3.67;;
43807;SDS011;29438;50.664;10.098;2023-10-09T09:31:37;7.38;;;3.05;;
43807;SDS011;29438;50.664;10.098;2023-10-09T09:34:07;6.47;;;2.90;;
43807;SDS011;29438;50.664;10.098;2023-10-09T09:36:57;8.43;;;3.53;;
43807;SDS011;29438;50.664;10.098;2023-10-09T09:39:26;8.30;;;3.35;;
43807;SDS011;29438;50.664;10.098;2023-10-09T09:42:01;7.88;;;3.10;;
43807;SDS011;29438;50.664;10.098;2023-10-09T09:44:32;7.45;;;3.20;;
43807;SDS011;29438;50.664;10.098;2023-10-09T09:47:08;11.27;;;3.10;;
43807;SDS011;29438;50.664;10.098;2023-10-09T09:49:37;9.38;;;2.97;;
43807;SDS011;29438;50.664;10.098;2023-10-09T09:52:06;7.68;;;3.40;;
43807;SDS011;29438;50.664;10.098;2023-10-09T09:54:38;8.23;;;3.10;;
43807;SDS011;29438;50.664;10.098;2023-10-09T09:57:04;8.52;;;3.45;;
43807;SDS011;29438;50.664;10.098;2023-10-09T09:59:37;6.55;;;2.92;;
43807;SDS011;29438;50.664;10.098;2023-10-09T10:02:16;7.35;;;3.20;;
43807;SDS011;29438;50.664;10.098;2023-10-09T10:04:47;9.27;;;3.40;;
43807;SDS011;29438;50.664;10.098;2023-10-09T10:07:19;8.50;;;3.10;;
43807;SDS011;29438;50.664;10.098;2023-10-09T10:09:47;8.93;;;3.20;;
43807;SDS011;29438;50.664;10.098;2023-10-09T10:15:13;8.35;;;3.08;;
43807;SDS011;29438;50.664;10.098;2023-10-09T10:20:24;8.13;;;3.13;;
43807;SDS011;29438;50.664;10.098;2023-10-09T10:22:50;9.20;;;3.20;;
43807;SDS011;29438;50.664;10.098;2023-10-09T10:28:19;8.40;;;3.60;;
43807;SDS011;29438;50.664;10.098;2023-10-09T10:31:04;6.63;;;3.65;;
43807;SDS011;29438;50.664;10.098;2023-10-09T10:36:18;7.93;;;3.50;;
43807;SDS011;29438;50.664;10.098;2023-10-09T10:38:47;6.30;;;3.08;;
43807;SDS011;29438;50.664;10.098;2023-10-09T10:41:35;7.82;;;3.58;;
43807;SDS011;29438;50.664;10.098;2023-10-09T10:44:04;8.48;;;3.40;;
43807;SDS011;29438;50.664;10.098;2023-10-09T10:46:48;7.65;;;3.60;;
43807;SDS011;29438;50.664;10.098;2023-10-09T10:49:19;8.30;;;3.40;;
43807;SDS011;29438;50.664;10.098;2023-10-09T10:51:50;8.15;;;3.60;;
43807;SDS011;29438;50.664;10.098;2023-10-09T10:54:26;7.38;;;3.50;;
43807;SDS011;29438;50.664;10.098;2023-10-09T10:56:58;7.28;;;2.85;;
43807;SDS011;29438;50.664;10.098;2023-10-09T10:59:24;8.02;;;3.20;;
43807;SDS011;29438;50.664;10.098;2023-10-09T11:01:58;7.47;;;3.22;;
43807;SDS011;29438;50.664;10.098;2023-10-09T11:04:28;7.93;;;3.60;;
43807;SDS011;29438;50.664;10.098;2023-10-09T11:06:57;8.63;;;3.83;;
43807;SDS011;29438;50.664;10.098;2023-10-09T11:09:46;8.05;;;3.63;;
43807;SDS011;29438;50.664;10.098;2023-10-09T11:12:28;9.25;;;3.33;;
43807;SDS011;29438;50.664;10.098;2023-10-09T11:15:07;6.78;;;3.45;;
43807;SDS011;29438;50.664;10.098;2023-10-09T11:18:00;8.32;;;3.78;;
43807;SDS011;29438;50.664;10.098;2023-10-09T11:20:35;7.75;;;3.28;;
43807;SDS011;29438;50.664;10.098;2023-10-09T11:23:03;6.07;;;3.17;;
43807;SDS011;29438;50.664;10.098;2023-10-09T11:25:37;8.27;;;3.35;;
43807;SDS011;29438;50.664;10.098;2023-10-09T11:28:18;7.95;;;3.72;;
43807;SDS011;29438;50.664;10.098;2023-10-09T11:31:06;8.07;;;3.55;;
43807;SDS011;29438;50.664;10.098;2023-10-09T11:33:47;8.25;;;3.38;;
43807;SDS011;29438;50.664;10.098;2023-10-09T11:36:18;7.18;;;3.60;;
43807;SDS011;29438;50.664;10.098;2023-10-09T11:38:59;7.32;;;3.20;;
43807;SDS011;29438;50.664;10.098;2023-10-09T11:41:45;8.20;;;3.30;;
43807;SDS011;29438;50.664;10.098;2023-10-09T11:44:14;9.00;;;3.05;;
43807;SDS011;29438;50.664;10.098;2023-10-09T11:47:07;8.90;;;3.05;;
43807;SDS011;29438;50.664;10.098;2023-10-09T11:49:48;9.63;;;3.45;;
43807;SDS011;29438;50.664;10.098;2023-10-09T11:52:35;9.05;;;3.10;;
43807;SDS011;29438;50.664;10.098;2023-10-09T11:55:03;8.55;;;3.35;;
43807;SDS011;29438;50.664;10.098;2023-10-09T11:57:32;7.88;;;3.28;;
43807;SDS011;29438;50.664;10.098;2023-10-09T12:00:03;6.28;;;3.00;;
43807;SDS011;29438;50.664;10.098;2023-10-09T12:02:37;7.55;;;3.38;;
43807;SDS011;29438;50.664;10.098;2023-10-09T12:05:09;9.77;;;3.10;;
43807;SDS011;29438;50.664;10.098;2023-10-09T12:07:41;5.50;;;2.78;;
43807;SDS011;29438;50.664;10.098;2023-10-09T12:10:10;6.63;;;2.85;;
43807;SDS011;29438;50.664;10.098;2023-10-09T12:12:38;9.70;;;3.13;;
43807;SDS011;29438;50.664;10.098;2023-10-09T12:15:05;7.82;;;2.90;;
43807;SDS011;29438;50.664;10.098;2023-10-09T12:17:31;6.45;;;2.80;;
43807;SDS011;29438;50.664;10.098;2023-10-09T12:19:57;7.47;;;2.80;;
43807;SDS011;29438;50.664;10.098;2023-10-09T12:22:24;7.13;;;2.80;;
43807;SDS011;29438;50.664;10.098;2023-10-09T12:24:52;5.95;;;2.85;;
43807;SDS011;29438;50.664;10.098;2023-10-09T12:27:17;6.28;;;3.10;;
43807;SDS011;29438;50.664;10.098;2023-10-09T12:29:45;5.30;;;2.70;;
43807;SDS011;29438;50.664;10.098;2023-10-09T12:32:11;7.60;;;3.03;;
43807;SDS011;29438;50.664;10.098;2023-10-09T12:34:36;8.18;;;2.97;;
43807;SDS011;29438;50.664;10.098;2023-10-09T12:37:03;9.15;;;3.20;;
43807;SDS011;29438;50.664;10.098;2023-10-09T12:39:29;9.25;;;2.80;;
43807;SDS011;29438;50.664;10.098;2023-10-09T12:42:01;7.63;;;3.17;;
43807;SDS011;29438;50.664;10.098;2023-10-09T12:44:33;6.28;;;2.85;;
43807;SDS011;29438;50.664;10.098;2023-10-09T12:47:03;6.65;;;2.83;;
43807;SDS011;29438;50.664;10.098;2023-10-09T12:49:32;8.10;;;2.90;;
43807;SDS011;29438;50.664;10.098;2023-10-09T12:51:58;6.75;;;2.45;;
43807;SDS011;29438;50.664;10.098;2023-10-09T12:54:27;6.72;;;2.50;;
43807;SDS011;29438;50.664;10.098;2023-10-09T12:56:53;6.25;;;2.72;;
43807;SDS011;29438;50.664;10.098;2023-10-09T12:59:20;7.82;;;2.60;;
43807;SDS011;29438;50.664;10.098;2023-10-09T13:01:46;7.13;;;2.80;;
43807;SDS011;29438;50.664;10.098;2023-10-09T13:04:17;6.95;;;2.95;;
43807;SDS011;29438;50.664;10.098;2023-10-09T13:06:47;8.25;;;3.00;;
43807;SDS011;29438;50.664;10.098;2023-10-09T13:09:16;8.88;;;3.28;;
43807;SDS011;29438;50.664;10.098;2023-10-09T13:11:58;9.60;;;4.25;;
43807;SDS011;29438;50.664;10.098;2023-10-09T13:14:25;7.38;;;2.83;;
43807;SDS011;29438;50.664;10.098;2023-10-09T13:16:51;12.13;;;4.63;;
43807;SDS011;29438;50.664;10.098;2023-10-09T13:19:17;7.95;;;3.13;;
43807;SDS011;29438;50.664;10.098;2023-10-09T13:21:43;7.05;;;2.72;;
43807;SDS011;29438;50.664;10.098;2023-10-09T13:24:09;6.82;;;3.13;;
43807;SDS011;29438;50.664;10.098;2023-10-09T13:26:40;6.97;;;2.80;;
43807;SDS011;29438;50.664;10.098;2023-10-09T13:29:08;6.35;;;2.83;;
43807;SDS011;29438;50.664;10.098;2023-10-09T13:31:37;7.00;;;2.95;;
43807;SDS011;29438;50.664;10.098;2023-10-09T13:34:05;6.28;;;2.90;;
43807;SDS011;29438;50.664;10.098;2023-10-09T13:36:39;11.18;;;3.42;;
43807;SDS011;29438;50.664;10.098;2023-10-09T13:39:23;8.80;;;3.28;;
43807;SDS011;29438;50.664;10.098;2023-10-09T13:44:29;9.35;;;3.17;;
43807;SDS011;29438;50.664;10.098;2023-10-09T13:46:57;7.50;;;3.30;;
43807;SDS011;29438;50.664;10.098;2023-10-09T13:49:23;7.57;;;3.22;;
43807;SDS011;29438;50.664;10.098;2023-10-09T13:51:54;8.27;;;3.00;;
43807;SDS011;29438;50.664;10.098;2023-10-09T13:54:21;8.40;;;3.10;;
43807;SDS011;29438;50.664;10.098;2023-10-09T13:57:04;8.60;;;3.70;;
43807;SDS011;29438;50.664;10.098;2023-10-09T13:59:31;8.05;;;3.13;;
43807;SDS011;29438;50.664;10.098;2023-10-09T14:02:00;8.13;;;3.38;;
43807;SDS011;29438;50.664;10.098;2023-10-09T14:04:27;10.10;;;3.53;;
43807;SDS011;29438;50.664;10.098;2023-10-09T14:06:53;9.02;;;3.50;;
43807;SDS011;29438;50.664;10.098;2023-10-09T14:09:23;8.93;;;3.10;;
43807;SDS011;29438;50.664;10.098;2023-10-09T14:12:10;7.22;;;3.08;;
43807;SDS011;29438;50.664;10.098;2023-10-09T14:14:40;7.40;;;3.20;;
43807;SDS011;29438;50.664;10.098;2023-10-09T14:17:12;7.93;;;3.03;;
43807;SDS011;29438;50.664;10.098;2023-10-09T14:19:48;8.68;;;3.60;;
43807;SDS011;29438;50.664;10.098;2023-10-09T14:22:20;7.75;;;3.20;;
43807;SDS011;29438;50.664;10.098;2023-10-09T14:24:49;9.85;;;3.22;;
43807;SDS011;29438;50.664;10.098;2023-10-09T14:27:20;8.38;;;3.80;;
43807;SDS011;29438;50.664;10.098;2023-10-09T14:29:50;7.10;;;3.08;;
43807;SDS011;29438;50.664;10.098;2023-10-09T14:32:20;8.93;;;3.17;;
43807;SDS011;29438;50.664;10.098;2023-10-09T14:34:50;8.57;;;3.70;;
43807;SDS011;29438;50.664;10.098;2023-10-09T14:37:19;8.07;;;3.08;;
43807;SDS011;29438;50.664;10.098;2023-10-09T14:39:45;9.63;;;3.33;;
43807;SDS011;29438;50.664;10.098;2023-10-09T14:42:13;6.72;;;3.20;;
43807;SDS011;29438;50.664;10.098;2023-10-09T14:44:40;7.20;;;2.78;;
43807;SDS011;29438;50.664;10.098;2023-10-09T14:47:06;6.45;;;2.80;;
43807;SDS011;29438;50.664;10.098;2023-10-09T14:49:33;7.20;;;3.00;;
43807;SDS011;29438;50.664;10.098;2023-10-09T14:52:19;6.97;;;2.85;;
43807;SDS011;29438;50.664;10.098;2023-10-09T14:54:45;6.57;;;2.88;;
43807;SDS011;29438;50.664;10.098;2023-10-09T14:57:14;8.75;;;3.28;;
43807;SDS011;29438;50.664;10.098;2023-10-09T14:59:39;4.97;;;2.60;;
43807;SDS011;29438;50.664;10.098;2023-10-09T15:02:07;6.07;;;2.42;;
43807;SDS011;29438;50.664;10.098;2023-10-09T15:04:33;6.13;;;2.45;;
43807;SDS011;29438;50.664;10.098;2023-10-09T15:07:02;8.18;;;3.70;;
43807;SDS011;29438;50.664;10.098;2023-10-09T15:09:32;6.75;;;3.20;;
43807;SDS011;29438;50.664;10.098;2023-10-09T15:11:59;8.05;;;3.05;;
43807;SDS011;29438;50.664;10.098;2023-10-09T15:14:25;7.40;;;3.35;;
43807;SDS011;29438;50.664;10.098;2023-10-09T15:16:51;5.72;;;2.45;;
43807;SDS011;29438;50.664;10.098;2023-10-09T15:19:17;5.55;;;2.70;;
43807;SDS011;29438;50.664;10.098;2023-10-09T15:21:42;7.45;;;2.85;;
43807;SDS011;29438;50.664;10.098;2023-10-09T15:24:11;7.13;;;2.80;;
43807;SDS011;29438;50.664;10.098;2023-10-09T15:26:44;6.20;;;2.40;;
43807;SDS011;29438;50.664;10.098;2023-10-09T15:29:17;6.70;;;2.88;;
43807;SDS011;29438;50.664;10.098;2023-10-09T15:31:44;10.15;;;2.92;;